Time;durP1;ratioP1;P1;durP2;ratioP2;P2;SDS_P1;SDS_P2;PMS_P1;PMS_P2;Temp;Humidity;BMP_temperature;BMP_pressure;BME280_temperature;BME280_humidity;BME280_pressure;Samples;Min_cycle;Max_cycle;Signal;HPM_P1;HPM_P2
2022/09/15 00:01:32;;;;;;;5.20;4.90;;;;;;;18.09;100.00;77015.28;5072372;28;20204;-63
2022/09/15 00:03:59;;;;;;;4.90;4.60;;;;;;;18.19;100.00;91622.34;5072114;28;20498;-62
2022/09/15 00:06:26;;;;;;;4.70;4.40;;;;;;;18.24;100.00;105617.94;5072162;28;20185;-63
2022/09/15 00:08:53;;;;;;;5.67;4.63;;;;;;;18.33;100.00;101297.56;5075461;28;20200;-62
2022/09/15 00:11:22;;;;;;;5.40;4.90;;;;;;;18.50;100.00;115695.09;5076107;28;20694;-64
2022/09/15 00:13:50;;;;;;;6.33;5.73;;;;;;;18.56;100.00;112359.81;5076340;28;20544;-63
2022/09/15 00:16:20;;;;;;;5.00;4.77;;;;;;;18.43;100.00;109325.13;5075594;28;20191;-64
2022/09/15 00:18:48;;;;;;;5.37;4.63;;;;;;;18.56;100.00;119057.19;5075843;28;20189;-62
2022/09/15 00:21:18;;;;;;;5.17;4.90;;;;;;;18.50;100.00;125753.50;5076061;28;20189;-62
2022/09/15 00:23:45;;;;;;;4.97;4.67;;;;;;;18.18;100.00;103605.59;5075907;28;20203;-63
2022/09/15 00:26:14;;;;;;;5.70;4.80;;;;;;;18.15;100.00;93943.31;5075850;28;20575;-62
2022/09/15 00:28:42;;;;;;;5.73;5.10;;;;;;;18.01;100.00;94253.50;5075644;28;20291;-63
2022/09/15 00:31:11;;;;;;;5.53;5.23;;;;;;;17.83;100.00;86586.63;5075299;28;20184;-63
2022/09/15 00:33:39;;;;;;;6.50;5.43;;;;;;;17.76;100.00;79951.09;5075518;28;20532;-62
2022/09/15 00:36:09;;;;;;;5.77;5.57;;;;;;;18.02;100.00;82966.84;5075763;28;20516;-63
2022/09/15 00:38:37;;;;;;;6.23;5.83;;;;;;;18.06;100.00;83304.00;5075500;28;20283;-62
2022/09/15 00:41:05;;;;;;;6.30;5.90;;;;;;;18.18;100.00;86307.09;5075380;28;20215;-64
2022/09/15 00:43:48;;;;;;;7.77;6.83;;;;;;;18.30;100.00;89643.94;5075068;28;20180;-63
2022/09/15 00:46:17;;;;;;;6.70;6.30;;;;;;;18.26;100.00;105622.41;5075178;28;20185;-63
2022/09/15 00:48:51;;;;;;;6.87;6.23;;;;;;;18.41;100.00;114003.03;5074863;28;20218;-63
2022/09/15 00:51:22;;;;;;;6.83;6.53;;;;;;;18.41;100.00;105648.38;5075264;28;20598;-63
2022/09/15 00:53:52;;;;;;;6.30;5.73;;;;;;;18.39;100.00;108649.47;5075303;28;20640;-62
2022/09/15 00:56:20;;;;;;;6.20;5.70;;;;;;;18.32;100.00;113986.66;5074035;28;20204;-62
2022/09/15 00:58:55;;;;;;;5.77;5.57;;;;;;;18.25;100.00;110629.38;5074848;28;20189;-63
2022/09/15 01:01:25;;;;;;;6.30;5.70;;;;;;;18.37;100.00;105306.53;5075192;28;20269;-63
2022/09/15 01:03:54;;;;;;;6.70;6.30;;;;;;;18.41;100.00;102310.81;5074958;28;20196;-63
2022/09/15 01:06:28;;;;;;;5.80;5.50;;;;;;;18.31;100.00;101960.03;5074930;28;20254;-63
2022/09/15 01:09:02;;;;;;;6.43;5.53;;;;;;;18.19;100.00;99607.50;5074848;28;20679;-63
2022/09/15 01:11:29;;;;;;;6.27;5.90;;;;;;;18.15;100.00;99267.66;5074719;28;20555;-63
2022/09/15 01:13:56;;;;;;;6.20;5.83;;;;;;;18.25;100.00;92295.75;5074621;28;20187;-63
2022/09/15 01:16:31;;;;;;;6.97;6.50;;;;;;;18.19;100.00;91621.56;5074345;28;20185;-62
2022/09/15 01:19:13;;;;;;;6.33;5.80;;;;;;;17.98;100.00;88599.94;5074566;28;20571;-64
2022/09/15 01:21:46;;;;;;;6.10;5.80;;;;;;;18.12;100.00;96931.97;5074369;28;20563;-64
2022/09/15 01:24:33;;;;;;;7.43;6.33;;;;;;;18.16;100.00;95274.66;5074742;28;20207;-63
2022/09/15 01:27:36;;;;;;;6.40;5.80;;;;;;;18.03;100.00;111257.41;5074603;28;20489;-64
2022/09/15 01:30:11;;;;;;;5.70;5.30;;;;;;;18.23;100.00;118991.75;5026961;28;20230;-62
2022/09/15 01:33:03;;;;;;;5.90;5.40;;;;;;;18.36;100.00;132445.47;5074096;28;20188;-64
2022/09/15 01:35:48;;;;;;;6.80;5.63;;;;;;;18.30;100.00;140919.88;5074024;28;20185;-62
2022/09/15 01:38:25;;;;;;;5.63;5.17;;;;;;;18.41;100.00;150665.16;5070930;28;20200;-63
2022/09/15 01:40:57;;;;;;;5.43;5.13;;;;;;;18.52;100.00;150693.16;5074048;28;20184;-63
2022/09/15 01:43:25;;;;;;;5.47;5.17;;;;;;;18.53;100.00;150694.44;5074015;28;20193;-62
2022/09/15 01:45:53;;;;;;;5.83;5.30;;;;;;;18.70;100.00;150738.94;5074174;28;20196;-63
2022/09/15 01:48:25;;;;;;;5.70;5.20;;;;;;;18.86;100.00;150777.09;5073923;28;20206;-63
2022/09/15 01:50:56;;;;;;;5.17;4.87;;;;;;;19.01;100.00;150815.28;5074000;28;20215;-63
2022/09/15 01:53:23;;;;;;;5.53;5.03;;;;;;;19.17;100.00;150855.97;5073841;28;20181;-63
2022/09/15 01:55:59;;;;;;;5.00;4.70;;;;;;;19.38;100.00;150909.44;5074078;28;20188;-62
2022/09/15 01:58:27;;;;;;;5.40;5.17;;;;;;;19.51;100.00;150941.28;5074043;28;20681;-63
2022/09/15 02:01:03;;;;;;;5.63;5.10;;;;;;;19.54;100.00;150950.19;5074007;28;20196;-63
2022/09/15 02:03:34;;;;;;;5.18;4.88;;;;;;;19.66;100.00;150979.44;5074175;28;20185;-63
2022/09/15 02:06:06;;;;;;;5.30;4.60;;;;;;;19.52;100.00;150945.06;5073562;28;20189;-65
2022/09/15 02:08:41;;;;;;;7.60;5.47;;;;;;;19.68;100.00;150983.28;5073505;28;20188;-63
2022/09/15 02:11:15;;;;;;;5.23;4.57;;;;;;;19.52;100.00;150943.78;5073314;28;20209;-63
2022/09/15 02:13:48;;;;;;;6.23;5.67;;;;;;;19.52;100.00;150945.06;5073294;28;20177;-63
2022/09/15 02:16:20;;;;;;;8.63;5.87;;;;;;;19.56;100.00;150955.25;5073769;28;20631;-63
2022/09/15 02:19:02;;;;;;;10.47;6.30;;;;;;;19.50;100.00;150940.00;5073193;28;20218;-63
2022/09/15 02:21:33;;;;;;;8.17;6.07;;;;;;;19.26;100.00;150878.88;5073066;28;20180;-63
2022/09/15 02:24:06;;;;;;;6.83;6.10;;;;;;;19.27;100.00;150880.13;5073561;28;20683;-63
2022/09/15 02:26:35;;;;;;;14.10;7.20;;;;;;;19.22;100.00;150867.44;5073172;28;20196;-63
2022/09/15 02:29:07;;;;;;;13.43;6.53;;;;;;;19.10;100.00;150839.41;5073590;28;20652;-63
2022/09/15 02:31:39;;;;;;;15.23;6.83;;;;;;;18.93;100.00;150794.88;5071292;28;20185;-62
2022/09/15 02:34:10;;;;;;;10.13;6.60;;;;;;;18.88;100.00;150782.19;5073003;28;20208;-63
2022/09/15 02:36:40;;;;;;;6.90;6.30;;;;;;;18.84;100.00;150772.03;5072929;28;20181;-63
2022/09/15 02:39:09;;;;;;;7.73;5.70;;;;;;;18.87;100.00;150780.91;5072752;28;20233;-64
2022/09/15 02:41:37;;;;;;;6.37;5.47;;;;;;;18.83;100.00;150769.47;5073018;28;20669;-62
2022/09/15 02:44:07;;;;;;;8.83;6.77;;;;;;;18.89;100.00;150784.72;5073032;28;20207;-63
2022/09/15 02:46:35;;;;;;;13.03;6.13;;;;;;;18.92;100.00;150792.38;5072890;28;20185;-63
2022/09/15 02:49:02;;;;;;;9.47;5.43;;;;;;;18.91;100.00;150789.81;5072778;28;20219;-63
2022/09/15 02:51:29;;;;;;;11.07;5.90;;;;;;;18.97;100.00;150805.06;5072561;28;20189;-62
2022/09/15 02:53:56;;;;;;;14.60;7.07;;;;;;;18.90;100.00;150787.25;5072706;28;20273;-63
2022/09/15 02:56:23;;;;;;;9.70;6.50;;;;;;;18.73;100.00;150744.00;5073127;28;20216;-63
2022/09/15 02:58:50;;;;;;;13.70;5.70;;;;;;;18.85;100.00;150774.53;5072426;28;20188;-63
2022/09/15 03:01:17;;;;;;;11.57;6.53;;;;;;;18.79;100.00;150760.56;5072705;28;20197;-63
2022/09/15 03:03:46;;;;;;;12.43;6.47;;;;;;;18.77;100.00;150754.19;5072703;28;20563;-64
2022/09/15 03:06:17;;;;;;;14.70;6.50;;;;;;;18.81;100.00;150765.63;5072554;28;20640;-64
2022/09/15 03:08:47;;;;;;;7.77;5.37;;;;;;;18.89;100.00;150784.72;5072171;28;20180;-63
2022/09/15 03:11:14;;;;;;;5.93;5.00;;;;;;;18.93;100.00;150794.88;5072380;28;20208;-63
2022/09/15 03:13:42;;;;;;;6.60;4.60;;;;;;;18.88;100.00;150783.47;5072310;28;20242;-63
2022/09/15 03:16:09;;;;;;;5.03;4.70;;;;;;;18.90;100.00;150787.25;5072536;28;20195;-63
2022/09/15 03:18:36;;;;;;;8.47;4.80;;;;;;;18.89;100.00;150784.72;5071864;28;20239;-62
2022/09/15 03:21:06;;;;;;;4.23;4.00;;;;;;;18.75;100.00;150749.13;5071981;28;20584;-62
2022/09/15 03:23:33;;;;;;;5.87;4.57;;;;;;;19.11;100.00;150840.69;5071934;28;20188;-64
2022/09/15 03:26:01;;;;;;;6.60;4.40;;;;;;;19.16;100.00;150853.44;5072290;28;20187;-63
2022/09/15 03:28:29;;;;;;;4.80;4.13;;;;;;;19.30;100.00;150889.06;5071828;28;20187;-63
2022/09/15 03:30:57;;;;;;;7.23;4.67;;;;;;;19.38;100.00;150908.16;5071754;28;20228;-63
2022/09/15 03:33:25;;;;;;;6.07;5.13;;;;;;;19.40;100.00;150914.50;5072170;28;20273;-62
2022/09/15 03:35:52;;;;;;;4.63;4.10;;;;;;;19.47;100.00;150932.38;5071886;28;20185;-63
2022/09/15 03:38:21;;;;;;;4.17;3.97;;;;;;;19.52;100.00;150945.06;5071832;28;20192;-63
2022/09/15 03:41:00;;;;;;;6.20;4.17;;;;;;;19.53;100.00;150947.63;5071694;28;20216;-63
2022/09/15 03:43:27;;;;;;;5.60;4.20;;;;;;;19.46;100.00;150929.81;5071808;28;20192;-64
2022/09/15 03:45:54;;;;;;;6.10;4.60;;;;;;;19.45;100.00;150927.28;5072008;28;20555;-63
2022/09/15 03:48:23;;;;;;;5.00;4.60;;;;;;;19.59;100.00;150961.66;5071686;28;20192;-63
2022/09/15 03:50:50;;;;;;;8.10;4.43;;;;;;;19.65;100.00;150976.88;5071387;28;20200;-63
2022/09/15 03:53:17;;;;;;;5.60;5.03;;;;;;;19.68;100.00;150983.28;5071916;28;20207;-63
2022/09/15 03:55:46;;;;;;;5.80;4.93;;;;;;;19.53;100.00;150947.63;5071742;28;20188;-63
2022/09/15 03:58:13;;;;;;;7.07;5.07;;;;;;;19.56;100.00;150955.25;5072006;28;20297;-63
2022/09/15 04:00:40;;;;;;;6.53;4.97;;;;;;;19.50;100.00;150938.72;5071637;28;20189;-64
2022/09/15 04:03:08;;;;;;;14.10;4.83;;;;;;;19.37;100.00;150906.88;5071556;28;20188;-63
2022/09/15 04:05:36;;;;;;;5.47;4.93;;;;;;;19.60;100.00;150965.44;5071669;28;20187;-64
2022/09/15 04:08:03;;;;;;;11.68;5.57;;;;;;;19.63;100.00;150970.53;5071733;28;20527;-63
2022/09/15 04:10:30;;;;;;;10.13;5.67;;;;;;;19.67;100.00;150980.72;5071386;28;20208;-66
2022/09/15 04:12:59;;;;;;;9.30;4.80;;;;;;;19.54;100.00;150948.91;5071627;28;20234;-63
2022/09/15 04:15:26;;;;;;;10.03;5.30;;;;;;;19.28;100.00;150883.97;5071732;28;20560;-63
2022/09/15 04:17:53;;;;;;;15.33;5.90;;;;;;;19.44;100.00;150924.72;5071272;28;20250;-63
2022/09/15 04:20:20;;;;;;;14.60;5.90;;;;;;;19.42;100.00;150919.59;5071417;28;20195;-63
2022/09/15 04:22:47;;;;;;;8.90;5.77;;;;;;;19.42;100.00;150918.31;5071279;28;20197;-63
2022/09/15 04:25:14;;;;;;;11.67;6.63;;;;;;;19.92;100.00;151044.38;5071615;28;20635;-64
2022/09/15 04:27:41;;;;;;;10.10;6.07;;;;;;;20.39;100.00;151164.09;5071556;28;20715;-64
2022/09/15 04:30:10;;;;;;;11.82;6.72;;;;;;;20.87;100.00;151285.13;5071257;28;20220;-64
2022/09/15 04:32:37;;;;;;;10.88;6.32;;;;;;;21.23;100.00;151374.31;5071612;28;20199;-65
2022/09/15 04:35:05;;;;;;;12.93;6.70;;;;;;;21.50;100.00;151441.88;5071181;28;20188;-64
2022/09/15 04:37:32;;;;;;;16.05;6.38;;;;;;;21.60;100.00;151467.38;5071468;28;20195;-65
2022/09/15 04:40:00;;;;;;;13.35;6.47;;;;;;;21.97;100.00;151561.75;5071496;28;20540;-64
2022/09/15 04:42:27;;;;;;;17.92;6.35;;;;;;;22.57;100.00;151713.50;5071232;28;20188;-64
2022/09/15 04:44:55;;;;;;;6.70;5.63;;;;;;;23.25;100.00;151883.19;5071142;28;20191;-64
2022/09/15 04:47:23;;;;;;;12.60;5.88;;;;;;;24.11;100.00;152102.75;5071287;28;20189;-63
2022/09/15 04:49:50;;;;;;;8.02;5.95;;;;;;;24.84;100.00;152285.41;5071222;28;20632;-66
2022/09/15 04:52:17;;;;;;;22.27;6.20;;;;;;;25.34;100.00;152413.19;5070964;28;20219;-65
2022/09/15 04:54:44;;;;;;;11.85;5.63;;;;;;;25.85;100.00;152542.31;5074287;28;20195;-65
2022/09/15 04:57:11;;;;;;;14.10;6.72;;;;;;;26.40;100.00;152679.13;5074843;28;20590;-65
2022/09/15 04:59:38;;;;;;;7.47;5.72;;;;;;;26.83;100.00;152790.41;5074676;28;20227;-64
2022/09/15 05:02:05;;;;;;;11.55;5.43;;;;;;;27.01;94.21;152835.22;5075269;28;20554;-65
2022/09/15 05:04:33;;;;;;;14.68;5.72;;;;;;;27.43;90.15;152941.41;5074883;28;20188;-64
2022/09/15 05:07:01;;;;;;;11.18;4.78;;;;;;;27.61;88.51;152987.53;5074996;28;20188;-66
2022/09/15 05:09:29;;;;;;;9.68;4.78;;;;;;;27.48;87.26;152952.97;5074982;28;20513;-65
2022/09/15 05:11:56;;;;;;;4.55;3.80;;;;;;;27.08;87.36;152851.84;5074338;28;20227;-64
2022/09/15 05:14:23;;;;;;;10.90;4.18;;;;;;;27.24;92.02;152894.03;5074880;28;20513;-64
2022/09/15 05:16:50;;;;;;;8.27;4.50;;;;;;;27.40;87.93;152933.75;5074398;28;20239;-65
2022/09/15 05:19:17;;;;;;;5.15;3.63;;;;;;;27.41;87.01;152935.03;5074653;28;20193;-66
2022/09/15 05:21:45;;;;;;;6.28;3.20;;;;;;;27.78;84.69;153029.75;5074330;28;20188;-65
2022/09/15 05:24:12;;;;;;;3.38;3.08;;;;;;;28.23;79.68;153143.69;5073127;28;20185;-65
2022/09/15 05:26:40;;;;;;;3.00;2.80;;;;;;;28.71;76.31;153264.09;5074449;28;20562;-65
2022/09/15 05:29:08;;;;;;;3.28;2.97;;;;;;;28.92;75.44;153319.16;5074457;28;20189;-66
2022/09/15 05:31:35;;;;;;;3.10;2.90;;;;;;;28.89;71.47;153311.50;5074221;28;20211;-66
2022/09/15 05:34:04;;;;;;;3.33;3.13;;;;;;;28.74;70.39;153271.75;5074018;28;20185;-61
2022/09/15 05:36:31;;;;;;;3.35;3.22;;;;;;;28.79;72.08;153284.56;5074243;28;20496;-60
2022/09/15 05:39:00;;;;;;;3.20;2.85;;;;;;;28.30;70.82;153161.66;5074293;28;20537;-64
2022/09/15 05:41:28;;;;;;;3.97;3.13;;;;;;;27.93;72.84;153066.84;5073772;28;20196;-64
2022/09/15 05:43:56;;;;;;;5.88;3.30;;;;;;;28.18;74.72;153130.88;5073787;28;20184;-64
2022/09/15 05:46:25;;;;;;;6.88;3.00;;;;;;;29.12;67.40;153369.09;5073911;28;20201;-66
2022/09/15 05:48:53;;;;;;;3.50;3.03;;;;;;;29.49;65.10;153463.91;5073846;28;20185;-66
2022/09/15 05:51:21;;;;;;;8.57;3.05;;;;;;;29.17;65.46;153381.91;5073961;28;20208;-63
2022/09/15 05:53:49;;;;;;;3.50;3.30;;;;;;;29.49;63.80;153463.91;5072647;28;20191;-65
2022/09/15 05:56:18;;;;;;;9.20;4.78;;;;;;;29.48;64.48;153460.09;5073705;28;20220;-65
2022/09/15 05:58:47;;;;;;;12.48;4.47;;;;;;;29.80;63.67;153540.78;5073525;28;20223;-64
2022/09/15 06:01:17;;;;;;;10.75;7.88;;;;;;;28.72;66.87;153267.94;5073635;28;20200;-65
2022/09/15 06:03:45;;;;;;;9.90;4.50;;;;;;;28.41;67.91;153189.78;5073643;28;20188;-66
2022/09/15 06:06:12;;;;;;;5.60;4.25;;;;;;;28.68;70.50;153256.38;5072662;28;20200;-66
2022/09/15 06:08:41;;;;;;;5.10;4.32;;;;;;;28.71;68.17;153264.09;5073537;28;20192;-62
2022/09/15 06:11:10;;;;;;;9.52;5.32;;;;;;;28.37;69.71;153179.56;5073472;28;20262;-65
2022/09/15 06:13:42;;;;;;;8.60;4.40;;;;;;;28.57;69.03;153229.47;5073845;28;20188;-66
2022/09/15 06:16:10;;;;;;;9.02;5.70;;;;;;;28.69;70.30;153260.19;5073785;28;20184;-62
2022/09/15 06:18:38;;;;;;;6.28;5.53;;;;;;;28.81;68.07;153289.72;5073041;28;20233;-61
2022/09/15 06:21:08;;;;;;;14.57;6.47;;;;;;;28.69;68.56;153258.91;5073298;28;20254;-64
2022/09/15 06:23:35;;;;;;;20.10;7.22;;;;;;;28.99;67.95;153337.06;5073549;28;20276;-62
2022/09/15 06:26:08;;;;;;;15.45;6.63;;;;;;;29.50;67.01;153465.22;5073102;28;20193;-62
2022/09/15 06:28:36;;;;;;;14.88;7.43;;;;;;;30.20;64.81;153643.38;5072978;28;20207;-64
2022/09/15 06:31:05;;;;;;;17.08;6.85;;;;;;;30.12;61.94;153622.88;5073083;28;20212;-60
2022/09/15 06:33:32;;;;;;;9.73;6.15;;;;;;;30.23;62.00;153649.78;5073280;28;20181;-63
2022/09/15 06:36:02;;;;;;;12.07;6.40;;;;;;;30.88;58.89;153813.91;5073152;28;20184;-66
2022/09/15 06:38:30;;;;;;;8.82;6.40;;;;;;;31.68;56.89;154017.91;5072927;28;20181;-68
2022/09/15 06:41:00;;;;;;;6.20;5.60;;;;;;;31.85;54.18;154061.53;5073091;28;20325;-68
2022/09/15 06:43:27;;;;;;;11.93;5.03;;;;;;;32.83;51.62;154310.56;5073316;28;20189;-66
2022/09/15 06:46:02;;;;;;;7.28;5.00;;;;;;;32.05;50.91;154112.84;5073020;28;20224;-67
2022/09/15 06:48:34;;;;;;;7.88;4.30;;;;;;;33.00;49.90;154354.22;5072771;28;20220;-67
2022/09/15 06:51:02;;;;;;;17.73;4.82;;;;;;;33.55;48.75;154491.63;5072686;28;20240;-66
2022/09/15 06:53:30;;;;;;;10.75;5.05;;;;;;;33.04;47.75;154363.19;5072969;28;20216;-66
2022/09/15 06:56:02;;;;;;;10.93;4.78;;;;;;;32.59;48.09;154250.16;5072913;28;20188;-66
2022/09/15 06:58:29;;;;;;;4.30;3.78;;;;;;;32.34;48.65;154186.00;5072803;28;20651;-67
2022/09/15 07:01:01;;;;;;;7.63;4.13;;;;;;;32.59;48.23;154248.94;5073091;28;20224;-66
2022/09/15 07:03:31;;;;;;;11.50;3.90;;;;;;;32.47;48.49;154218.09;5077097;28;20273;-68
2022/09/15 07:05:59;;;;;;;5.68;3.08;;;;;;;32.34;48.83;154184.72;5072562;28;20218;-67
2022/09/15 07:08:27;;;;;;;3.50;3.30;;;;;;;31.90;48.48;154074.38;5072707;28;20604;-66
2022/09/15 07:10:53;;;;;;;5.93;3.90;;;;;;;31.48;49.64;153966.56;5072479;28;20230;-67
2022/09/15 07:13:20;;;;;;;7.10;4.00;;;;;;;31.78;49.45;154042.31;5072490;28;20671;-67
2022/09/15 07:15:51;;;;;;;5.30;4.82;;;;;;;31.72;49.74;154028.16;5072142;28;20229;-67
2022/09/15 07:18:18;;;;;;;4.55;4.15;;;;;;;32.06;49.91;154114.13;5072017;28;20281;-66
2022/09/15 07:20:45;;;;;;;9.90;4.30;;;;;;;32.23;50.41;154156.50;5072592;28;20189;-67
2022/09/15 07:23:14;;;;;;;7.90;4.43;;;;;;;32.48;49.86;154220.66;5072129;28;20200;-65
2022/09/15 07:25:43;;;;;;;8.23;4.85;;;;;;;32.27;49.58;154168.06;5072183;28;20192;-66
2022/09/15 07:28:10;;;;;;;10.98;5.15;;;;;;;32.43;49.53;154207.81;5072271;28;20611;-67
2022/09/15 07:30:38;;;;;;;12.27;4.78;;;;;;;32.28;49.65;154169.34;5072248;28;20718;-66
2022/09/15 07:33:05;;;;;;;8.43;4.22;;;;;;;32.39;50.11;154198.84;5072187;28;20559;-63
2022/09/15 07:35:32;;;;;;;79.43;38.50;;;;;;;32.50;49.42;154225.81;5072033;28;20551;-61
2022/09/15 07:38:00;;;;;;;5.53;4.18;;;;;;;32.05;49.33;154111.53;5066959;28;20197;-62
2022/09/15 07:40:29;;;;;;;12.38;4.15;;;;;;;32.57;50.24;154245.06;5071642;28;20200;-61
2022/09/15 07:42:56;;;;;;;3.60;3.17;;;;;;;32.23;49.14;154156.50;5071883;28;20181;-61
2022/09/15 07:45:23;;;;;;;6.38;3.83;;;;;;;32.16;49.30;154139.84;5070744;28;20292;-61
2022/09/15 07:47:49;;;;;;;5.90;3.47;;;;;;;32.16;50.09;154141.16;5071872;28;20192;-61
2022/09/15 07:50:17;;;;;;;4.70;3.50;;;;;;;31.95;50.38;154087.22;5071904;28;20181;-61
2022/09/15 07:52:44;;;;;;;4.90;3.58;;;;;;;32.50;50.36;154225.81;5070561;28;20292;-61
2022/09/15 07:55:11;;;;;;;5.63;3.88;;;;;;;32.74;50.10;154287.47;5071941;28;20221;-62
2022/09/15 07:57:40;;;;;;;5.88;4.00;;;;;;;32.53;49.37;154233.50;5071699;28;20630;-62
2022/09/15 08:00:08;;;;;;;4.70;4.30;;;;;;;32.16;50.57;154139.84;5071685;28;20545;-62
2022/09/15 08:02:35;;;;;;;4.68;4.38;;;;;;;32.55;50.38;154239.91;5071596;28;20635;-61
2022/09/15 08:05:01;;;;;;;7.60;4.45;;;;;;;32.94;50.25;154337.50;5071524;28;20195;-62
2022/09/15 08:07:29;;;;;;;5.00;4.47;;;;;;;33.07;49.89;154372.19;5071673;28;20204;-62
2022/09/15 08:09:56;;;;;;;6.57;4.82;;;;;;;33.21;49.22;154405.59;5071693;28;20242;-61
2022/09/15 08:12:23;;;;;;;6.10;4.75;;;;;;;33.26;48.55;154419.75;5071621;28;20291;-61
2022/09/15 08:14:51;;;;;;;6.30;5.88;;;;;;;33.32;48.82;154435.13;5071358;28;20216;-60
2022/09/15 08:17:18;;;;;;;8.27;3.80;;;;;;;33.55;48.18;154491.63;5071079;28;20315;-62
2022/09/15 08:19:46;;;;;;;9.50;4.20;;;;;;;33.75;47.92;154543.03;5071667;28;20638;-61
2022/09/15 08:22:13;;;;;;;10.40;3.50;;;;;;;33.90;47.66;154582.88;5071510;28;20185;-61
2022/09/15 08:24:40;;;;;;;5.38;2.80;;;;;;;34.00;47.18;154605.97;5071232;28;20669;-61
2022/09/15 08:27:07;;;;;;;5.60;3.13;;;;;;;33.89;47.15;154580.31;5071456;28;20501;-61
2022/09/15 08:29:34;;;;;;;11.18;3.17;;;;;;;34.12;46.88;154638.06;5074720;28;20193;-62
2022/09/15 08:32:03;;;;;;;2.92;2.72;;;;;;;34.24;47.05;154667.69;5075079;28;20201;-62
2022/09/15 08:34:30;;;;;;;3.50;2.75;;;;;;;34.00;46.96;154607.25;5073788;28;20303;-61
2022/09/15 08:36:57;;;;;;;6.82;2.70;;;;;;;34.21;47.32;154661.25;5075793;28;20593;-62
2022/09/15 08:39:24;;;;;;;4.05;2.38;;;;;;;34.39;46.21;154706.22;5074790;28;20199;-61
2022/09/15 08:41:53;;;;;;;4.05;2.58;;;;;;;34.36;46.42;154698.53;5074782;28;20661;-61
2022/09/15 08:44:34;;;;;;;2.83;2.60;;;;;;;34.71;46.17;154787.25;5075074;28;20631;-62
2022/09/15 08:47:11;;;;;;;4.65;2.50;;;;;;;34.65;46.44;154773.09;5075468;28;20188;-62
2022/09/15 08:49:43;;;;;;;3.33;2.13;;;;;;;34.46;46.57;154724.19;5074943;28;20187;-61
2022/09/15 08:52:16;;;;;;;2.40;1.85;;;;;;;34.73;46.14;154792.34;5074558;28;20291;-61
2022/09/15 08:54:43;;;;;;;2.15;2.05;;;;;;;35.09;46.67;154883.63;5075001;28;20191;-61
2022/09/15 08:57:18;;;;;;;3.95;2.42;;;;;;;35.24;45.94;154922.19;5075408;28;20189;-61
2022/09/15 08:59:48;;;;;;;9.07;2.60;;;;;;;35.49;45.77;154986.47;5074500;28;20189;-61
2022/09/15 09:02:45;;;;;;;14.25;2.30;;;;;;;35.65;45.36;155027.66;5074824;28;20609;-61
2022/09/15 09:05:28;;;;;;;15.15;2.42;;;;;;;35.85;45.01;155076.53;5074769;28;20628;-61
2022/09/15 09:08:26;;;;;;;5.95;1.95;;;;;;;35.92;43.20;155094.50;5074326;28;20216;-62
2022/09/15 09:10:55;;;;;;;11.85;2.45;;;;;;;36.08;43.52;155136.94;5074505;28;20611;-61
2022/09/15 09:13:37;;;;;;;6.05;1.95;;;;;;;36.33;43.52;155198.69;5073399;28;20219;-61
2022/09/15 09:16:25;;;;;;;5.57;1.73;;;;;;;36.40;42.59;155218.03;5072981;28;20311;-61
2022/09/15 09:19:25;;;;;;;7.68;1.70;;;;;;;36.67;43.10;155284.91;5075399;28;20181;-62
2022/09/15 09:21:57;;;;;;;6.95;1.65;;;;;;;36.85;41.42;155331.25;5075108;28;20185;-63
2022/09/15 09:24:34;;;;;;;4.15;1.50;;;;;;;36.77;40.99;155310.66;5075143;28;20189;-66
2022/09/15 09:27:01;;;;;;;6.32;1.60;;;;;;;36.99;40.67;155367.28;5074628;28;20268;-66
2022/09/15 09:29:34;;;;;;;5.82;1.80;;;;;;;37.33;40.37;155454.81;5075240;28;20189;-65
2022/09/15 09:32:03;;;;;;;7.95;2.38;;;;;;;37.86;39.78;155588.69;5073212;28;20205;-67
2022/09/15 09:34:41;;;;;;;6.70;1.52;;;;;;;38.28;38.60;155696.84;5074460;28;20558;-61
2022/09/15 09:37:10;;;;;;;6.15;1.92;;;;;;;38.37;38.01;155718.75;5073852;28;20196;-62
2022/09/15 09:39:37;;;;;;;8.48;2.22;;;;;;;38.66;37.67;155792.22;5074039;28;20245;-62
2022/09/15 09:42:06;;;;;;;5.25;1.90;;;;;;;38.92;37.19;155859.19;5074191;28;20207;-61
2022/09/15 09:44:33;;;;;;;2.35;2.15;;;;;;;38.79;38.23;155826.94;5074046;28;20275;-62
2022/09/15 09:47:02;;;;;;;15.05;2.35;;;;;;;39.31;36.38;155958.41;5073524;28;20231;-61
2022/09/15 09:49:34;;;;;;;21.05;2.88;;;;;;;39.42;35.78;155986.78;5073704;28;20725;-61
2022/09/15 09:52:03;;;;;;;12.45;2.53;;;;;;;39.51;35.89;156008.66;5073808;28;20285;-62
2022/09/15 09:54:32;;;;;;;13.45;2.50;;;;;;;39.53;35.49;156013.81;5073530;28;20219;-62
2022/09/15 09:57:21;;;;;;;4.45;1.95;;;;;;;39.46;35.77;155995.78;5073972;28;20268;-62
2022/09/15 09:59:49;;;;;;;6.72;2.38;;;;;;;39.66;35.51;156047.28;5073952;28;20528;-66
2022/09/15 10:02:19;;;;;;;5.63;1.90;;;;;;;39.92;35.74;156114.34;5074473;28;20624;-66
2022/09/15 10:04:51;;;;;;;7.15;1.85;;;;;;;40.10;34.41;156160.69;5073865;28;20193;-67
2022/09/15 10:07:22;;;;;;;15.57;2.90;;;;;;;39.76;35.29;156071.84;5074304;28;20300;-66
2022/09/15 10:09:52;;;;;;;8.70;2.72;;;;;;;39.79;34.83;156080.84;5073737;28;20185;-66
2022/09/15 10:12:28;;;;;;;6.72;2.70;;;;;;;40.39;34.00;156234.22;5073945;28;20797;-65
2022/09/15 10:14:57;;;;;;;14.68;3.10;;;;;;;40.58;33.76;156281.88;5073734;28;20187;-65
2022/09/15 10:17:37;;;;;;;9.63;2.88;;;;;;;40.86;33.54;156352.84;5073706;28;20336;-66
2022/09/15 10:20:19;;;;;;;10.73;2.53;;;;;;;41.32;32.52;156470.19;5073999;28;20199;-64
2022/09/15 10:22:48;;;;;;;6.93;2.50;;;;;;;41.51;32.92;156519.22;5073817;28;20191;-65
2022/09/15 10:25:30;;;;;;;8.25;2.78;;;;;;;41.25;32.44;156452.16;5073860;28;20184;-65
2022/09/15 10:28:12;;;;;;;7.20;3.13;;;;;;;40.88;33.03;156357.97;5073653;28;20238;-67
2022/09/15 10:30:39;;;;;;;7.72;2.97;;;;;;;40.45;33.29;156248.38;5073546;28;20189;-65
2022/09/15 10:33:22;;;;;;;8.80;3.35;;;;;;;40.46;32.92;156250.97;5073593;28;20591;-67
2022/09/15 10:35:50;;;;;;;7.53;2.50;;;;;;;40.15;33.82;156172.28;5073290;28;20661;-66
2022/09/15 10:38:26;;;;;;;17.20;3.35;;;;;;;40.12;33.75;156164.59;5072212;28;20194;-66
2022/09/15 10:41:03;;;;;;;14.48;3.40;;;;;;;40.52;33.24;156266.44;5073441;28;20290;-66
2022/09/15 10:43:44;;;;;;;11.20;3.10;;;;;;;40.89;32.84;156361.88;5073173;28;20184;-65
2022/09/15 10:46:22;;;;;;;8.95;3.03;;;;;;;41.32;32.36;156471.50;5073404;28;20246;-67
2022/09/15 10:49:06;;;;;;;7.03;2.63;;;;;;;41.72;32.28;156572.09;5072961;28;20191;-65
2022/09/15 10:51:50;;;;;;;19.85;3.20;;;;;;;42.99;30.51;156897.28;5072602;28;20194;-66
2022/09/15 10:54:53;;;;;;;14.23;3.70;;;;;;;43.60;29.69;157052.25;5074078;28;20669;-66
2022/09/15 10:57:35;;;;;;;16.13;4.10;;;;;;;43.27;29.67;156968.34;5072911;28;20210;-66
2022/09/15 11:00:09;;;;;;;18.05;4.10;;;;;;;43.09;29.64;156921.88;5072931;28;20267;-65
2022/09/15 11:02:58;;;;;;;23.27;3.63;;;;;;;41.25;30.84;156452.16;5073004;28;20181;-67
2022/09/15 11:05:39;;;;;;;6.43;2.90;;;;;;;40.23;32.41;156192.97;5073016;28;20185;-66
2022/09/15 11:08:25;;;;;;;16.30;3.90;;;;;;;39.46;33.58;155995.78;5072621;28;20187;-66
2022/09/15 11:11:01;;;;;;;8.07;3.72;;;;;;;38.96;34.50;155869.47;5072785;28;20560;-66
2022/09/15 11:13:36;;;;;;;14.02;4.97;;;;;;;38.07;35.36;155642.78;5072591;28;20662;-67
2022/09/15 11:16:27;;;;;;;10.70;4.70;;;;;;;37.97;36.12;155617.06;5072620;28;20188;-66
2022/09/15 11:19:10;;;;;;;10.23;4.53;;;;;;;37.61;36.77;155524.31;5072577;28;20656;-64
2022/09/15 11:21:41;;;;;;;22.40;4.38;;;;;;;37.59;36.18;155520.50;5072271;28;20272;-66
2022/09/15 11:24:34;;;;;;;12.60;4.45;;;;;;;37.50;36.92;155497.28;5073053;28;20650;-64
2022/09/15 11:27:07;;;;;;;10.10;3.30;;;;;;;37.40;36.32;155471.53;5070578;28;20199;-65
2022/09/15 11:29:52;;;;;;;14.05;3.70;;;;;;;37.32;37.31;155452.22;5072473;28;20192;-63
2022/09/15 11:32:24;;;;;;;16.58;3.58;;;;;;;37.32;37.18;155450.94;5071984;28;20215;-61
2022/09/15 11:34:57;;;;;;;14.45;3.42;;;;;;;37.28;37.64;155441.94;5071948;28;20188;-62
2022/09/15 11:37:26;;;;;;;17.13;3.80;;;;;;;36.95;37.54;155358.28;5072375;28;20631;-64